createdAt,value
2017-11-18T00:00:33.147Z,3.70
2017-11-18T00:01:35.698Z,3.70
2017-11-18T00:02:38.224Z,3.70
2017-11-18T00:03:40.874Z,3.70
2017-11-18T00:04:44.164Z,3.70
2017-11-18T00:05:47.450Z,3.70
2017-11-18T00:06:50.789Z,3.70
2017-11-18T00:07:53.431Z,3.70
2017-11-18T00:08:55.970Z,3.70
2017-11-18T00:09:59.272Z,3.70
2017-11-18T00:11:01.786Z,3.70
2017-11-18T00:12:04.344Z,3.70
2017-11-18T00:13:06.858Z,3.80
2017-11-18T00:14:09.380Z,3.70
2017-11-18T00:15:11.946Z,3.70
2017-11-18T00:16:14.488Z,3.70
2017-11-18T00:17:17.017Z,3.70
2017-11-18T00:18:19.542Z,3.80
2017-11-18T00:19:22.066Z,3.80
2017-11-18T00:20:24.624Z,3.80
2017-11-18T00:21:27.146Z,3.80
2017-11-18T00:22:29.664Z,3.80
2017-11-18T00:23:32.191Z,3.80
2017-11-18T00:24:35.482Z,3.80
2017-11-18T00:25:38.803Z,3.80
2017-11-18T00:26:41.314Z,3.80
2017-11-18T00:27:43.858Z,3.80
2017-11-18T00:28:46.447Z,3.80
2017-11-18T00:29:48.956Z,3.80
2017-11-18T00:30:51.482Z,3.80
2017-11-18T00:31:54.034Z,3.80
2017-11-18T00:32:56.578Z,3.80
2017-11-18T00:33:59.094Z,3.80
2017-11-18T00:35:02.411Z,3.70
2017-11-18T00:36:04.938Z,3.80
2017-11-18T00:37:08.266Z,3.70
2017-11-18T00:38:10.807Z,3.70
2017-11-18T00:39:14.094Z,3.70
2017-11-18T00:40:16.622Z,3.70
2017-11-18T00:41:19.149Z,3.70
2017-11-18T00:42:21.795Z,3.70
2017-11-18T00:43:24.322Z,3.70
2017-11-18T00:44:26.842Z,3.70
2017-11-18T00:45:29.364Z,3.70
2017-11-18T00:46:31.915Z,3.70
2017-11-18T00:47:34.471Z,3.70
2017-11-18T00:48:37.027Z,3.70
2017-11-18T00:49:39.550Z,3.70
2017-11-18T00:50:42.838Z,3.70
2017-11-18T00:51:45.437Z,3.70
2017-11-18T00:52:47.960Z,3.70
2017-11-18T00:53:51.283Z,3.60
2017-11-18T00:54:53.802Z,3.60
2017-11-18T00:55:57.090Z,3.60
2017-11-18T00:57:00.378Z,3.50
2017-11-18T00:58:03.670Z,3.50
2017-11-18T00:59:06.989Z,3.60
2017-11-18T01:00:09.528Z,3.50
2017-11-18T01:01:12.105Z,3.60
2017-11-18T01:02:14.621Z,3.60
2017-11-18T01:03:17.167Z,3.60
2017-11-18T01:04:19.699Z,3.60
2017-11-18T01:05:22.218Z,3.60
2017-11-18T01:06:24.783Z,3.50
2017-11-18T01:07:27.334Z,3.50
2017-11-18T01:08:29.877Z,3.40
2017-11-18T01:09:32.417Z,3.40
2017-11-18T01:10:34.969Z,3.50
2017-11-18T01:11:38.313Z,3.50
2017-11-18T01:12:40.849Z,3.40
2017-11-18T01:13:43.407Z,3.40
2017-11-18T01:14:45.940Z,3.40
2017-11-18T01:15:48.480Z,3.30
2017-11-18T01:16:51.057Z,3.30
2017-11-18T01:17:53.597Z,3.40
2017-11-18T01:18:56.136Z,3.30
2017-11-18T01:19:59.445Z,3.20
2017-11-18T01:21:01.990Z,3.20
2017-11-18T01:22:04.571Z,3.30
2017-11-18T01:23:07.103Z,3.30
2017-11-18T01:24:10.406Z,3.20
2017-11-18T01:25:12.986Z,3.20
2017-11-18T01:26:15.595Z,3.20
2017-11-18T01:27:18.227Z,3.10
2017-11-18T01:28:21.024Z,3.10
2017-11-18T01:29:23.570Z,3.10
2017-11-18T01:30:26.118Z,3.20
2017-11-18T01:31:28.705Z,3.20
2017-11-18T01:32:31.285Z,3.20
2017-11-18T01:33:33.819Z,3.10
2017-11-18T01:34:36.391Z,3.20
2017-11-18T01:35:38.940Z,3.20
2017-11-18T01:36:42.290Z,3.20
2017-11-18T01:37:44.848Z,3.20
2017-11-18T01:38:47.384Z,3.20
2017-11-18T01:39:49.913Z,3.20
2017-11-18T01:40:53.220Z,3.20
2017-11-18T01:41:55.805Z,3.20
2017-11-18T01:42:58.341Z,3.20
2017-11-18T01:44:00.935Z,3.20
2017-11-18T01:45:03.487Z,3.20
2017-11-18T01:46:06.041Z,3.20
2017-11-18T01:47:08.596Z,3.10
2017-11-18T01:48:11.914Z,3.10
2017-11-18T01:49:14.486Z,3.10
2017-11-18T01:50:17.031Z,3.10
2017-11-18T01:51:19.573Z,3.00
2017-11-18T01:52:22.909Z,3.00
2017-11-18T01:53:25.478Z,3.00
2017-11-18T01:54:28.018Z,3.00
2017-11-18T01:55:30.567Z,3.00
2017-11-18T01:56:33.932Z,3.00
2017-11-18T01:57:36.493Z,3.00
2017-11-18T01:58:39.038Z,3.00
2017-11-18T01:59:41.582Z,3.00
2017-11-18T02:00:44.117Z,3.00
2017-11-18T02:01:47.461Z,3.10
2017-11-18T02:02:49.997Z,3.10
2017-11-18T02:03:52.540Z,3.10
2017-11-18T02:04:55.854Z,3.10
2017-11-18T02:05:58.391Z,3.00
2017-11-18T02:07:01.725Z,3.00
2017-11-18T02:08:04.313Z,3.00
2017-11-18T02:09:06.861Z,3.10
2017-11-18T02:10:09.404Z,3.20
2017-11-18T02:11:11.959Z,3.10
2017-11-18T02:12:14.500Z,3.20
2017-11-18T02:13:17.858Z,3.20
2017-11-18T02:14:20.406Z,3.20
2017-11-18T02:15:22.956Z,3.30
2017-11-18T02:16:25.502Z,3.30
2017-11-18T02:17:28.055Z,3.30
2017-11-18T02:18:31.410Z,3.40
2017-11-18T02:19:33.977Z,3.40
2017-11-18T02:20:36.517Z,3.50
2017-11-18T02:21:39.087Z,3.50
2017-11-18T02:22:41.684Z,3.60
2017-11-18T02:23:44.222Z,3.70
2017-11-18T02:24:46.781Z,3.70
2017-11-18T02:25:49.537Z,3.70
2017-11-18T02:26:52.072Z,3.70
2017-11-18T02:27:55.437Z,3.70
2017-11-18T02:28:58.027Z,3.70
2017-11-18T02:30:01.342Z,3.80
2017-11-18T02:31:03.887Z,3.80
2017-11-18T02:32:06.438Z,3.80
2017-11-18T02:33:09.743Z,3.90
2017-11-18T02:34:12.324Z,3.80
2017-11-18T02:35:14.889Z,3.80
2017-11-18T02:36:17.558Z,3.90
2017-11-18T02:37:20.095Z,3.90
2017-11-18T02:38:23.401Z,3.90
2017-11-18T02:39:26.080Z,3.90
2017-11-18T02:40:28.626Z,3.90
2017-11-18T02:41:31.174Z,3.90
2017-11-18T02:42:34.526Z,3.90
2017-11-18T02:43:37.099Z,3.90
2017-11-18T02:44:39.642Z,3.90
2017-11-18T02:45:42.171Z,3.90
2017-11-18T02:46:45.480Z,3.90
2017-11-18T02:47:48.036Z,3.90
2017-11-18T02:48:50.915Z,3.90
2017-11-18T02:49:53.476Z,3.90
2017-11-18T02:50:56.089Z,3.90
2017-11-18T02:51:58.638Z,3.90
2017-11-18T02:53:01.178Z,3.90
2017-11-18T02:54:03.715Z,3.90
2017-11-18T02:55:07.207Z,3.90
2017-11-18T02:56:10.542Z,3.80
2017-11-18T02:57:13.086Z,3.80
2017-11-18T02:58:15.633Z,3.90
2017-11-18T02:59:18.185Z,3.80
2017-11-18T03:00:21.498Z,3.90
2017-11-18T03:01:24.094Z,3.80
2017-11-18T03:02:26.628Z,3.90
2017-11-18T03:03:29.177Z,3.90
2017-11-18T03:04:32.497Z,3.90
2017-11-18T03:05:35.033Z,3.90
2017-11-18T03:06:38.375Z,4.00
2017-11-18T03:07:40.922Z,4.00
2017-11-18T03:08:43.507Z,4.00
2017-11-18T03:09:46.053Z,4.00
2017-11-18T03:10:48.594Z,4.00
2017-11-18T03:11:51.122Z,4.00
2017-11-18T03:12:53.788Z,4.00
2017-11-18T03:13:57.087Z,4.00
2017-11-18T03:14:59.607Z,4.00
2017-11-18T03:16:02.124Z,4.00
2017-11-18T03:17:05.411Z,4.00
2017-11-18T03:18:08.751Z,4.00
2017-11-18T03:19:11.280Z,4.00
2017-11-18T03:20:13.808Z,4.00
2017-11-18T03:21:16.326Z,4.00
2017-11-18T03:22:18.842Z,3.90
2017-11-18T03:23:21.427Z,4.00
2017-11-18T03:24:24.731Z,4.00
2017-11-18T03:25:27.261Z,4.00
2017-11-18T03:26:29.779Z,4.00
2017-11-18T03:27:32.440Z,4.00
2017-11-18T03:28:34.967Z,4.10
2017-11-18T03:29:38.256Z,4.10
2017-11-18T03:30:41.546Z,4.10
2017-11-18T03:31:44.879Z,4.00
2017-11-18T03:32:47.425Z,4.00
2017-11-18T03:33:49.991Z,4.00
2017-11-18T03:34:52.522Z,4.00
2017-11-18T03:35:55.986Z,4.00
2017-11-18T03:36:58.554Z,3.90
2017-11-18T03:38:01.081Z,3.90
2017-11-18T03:39:03.602Z,3.90
2017-11-18T03:40:06.903Z,4.00
2017-11-18T03:41:10.200Z,3.90
2017-11-18T03:42:12.751Z,4.00
2017-11-18T03:43:16.039Z,4.00
2017-11-18T03:44:19.332Z,3.90
2017-11-18T03:45:21.855Z,3.90
2017-11-18T03:46:24.383Z,4.00
2017-11-18T03:47:26.939Z,4.00
2017-11-18T03:48:29.465Z,4.00
2017-11-18T03:49:32.037Z,4.00
2017-11-18T03:50:35.321Z,4.10
2017-11-18T03:51:38.616Z,4.10
2017-11-18T03:52:41.917Z,4.20
2017-11-18T03:53:44.462Z,4.20
2017-11-18T03:54:47.758Z,4.20
2017-11-18T03:55:50.310Z,4.20
2017-11-18T03:56:53.612Z,4.30
2017-11-18T03:57:56.137Z,4.20
2017-11-18T03:58:58.701Z,4.30
2017-11-18T04:00:01.227Z,4.30
2017-11-18T04:01:03.746Z,4.30
2017-11-18T04:02:06.280Z,4.30
2017-11-18T04:03:08.811Z,4.30
2017-11-18T04:04:11.464Z,4.30
2017-11-18T04:05:14.752Z,4.30
2017-11-18T04:06:18.034Z,4.40
2017-11-18T04:10:23.031Z,4.40
2017-11-18T04:11:25.547Z,4.40
2017-11-18T04:12:28.079Z,4.30
2017-11-18T04:13:30.602Z,4.30
2017-11-18T04:14:33.139Z,4.40
2017-11-18T04:15:35.713Z,4.30
2017-11-18T04:16:38.236Z,4.40
2017-11-18T04:17:40.758Z,4.40
2017-11-18T04:18:43.276Z,4.40
2017-11-18T04:19:45.799Z,4.30
2017-11-18T04:20:48.355Z,4.30
2017-11-18T04:21:50.876Z,4.30
2017-11-18T04:22:53.395Z,4.20
2017-11-18T04:23:55.957Z,4.30
2017-11-18T04:24:58.521Z,4.30
2017-11-18T04:26:01.044Z,4.30
2017-11-18T04:27:03.570Z,4.30
2017-11-18T04:28:06.858Z,4.40
2017-11-18T04:29:09.422Z,4.40
2017-11-18T04:30:11.946Z,4.40
2017-11-18T04:31:15.232Z,4.30
2017-11-18T04:32:18.523Z,4.30
2017-11-18T04:33:21.043Z,4.30
2017-11-18T04:34:23.595Z,4.30
2017-11-18T04:35:26.127Z,4.30
2017-11-18T04:36:28.654Z,4.30
2017-11-18T04:37:31.180Z,4.30
2017-11-18T04:38:33.713Z,4.30
2017-11-18T04:39:37.037Z,4.30
2017-11-18T04:40:39.574Z,4.30
2017-11-18T04:41:42.106Z,4.40
2017-11-18T04:42:44.631Z,4.40
2017-11-18T04:43:47.203Z,4.40
2017-11-18T04:44:49.723Z,4.40
2017-11-18T04:45:53.092Z,4.30
2017-11-18T04:46:55.622Z,4.30
2017-11-18T04:47:58.141Z,4.30
2017-11-18T04:49:01.464Z,4.30
2017-11-18T04:50:03.986Z,4.30
2017-11-18T04:51:07.278Z,4.20
2017-11-18T04:52:09.812Z,4.20
2017-11-18T04:53:12.382Z,4.30
2017-11-18T04:54:14.904Z,4.30
2017-11-18T04:55:17.466Z,4.30
2017-11-18T04:56:20.018Z,4.20
2017-11-18T04:57:22.553Z,4.20
2017-11-18T04:58:25.843Z,4.20
2017-11-18T04:59:29.160Z,4.20
2017-11-18T05:00:31.716Z,4.20
2017-11-18T05:01:34.246Z,4.20
2017-11-18T05:02:37.552Z,4.20
2017-11-18T05:03:40.834Z,4.20
2017-11-18T05:04:44.123Z,4.20
2017-11-18T05:05:47.454Z,4.20
2017-11-18T05:06:49.969Z,4.20
2017-11-18T05:07:53.260Z,4.20
2017-11-18T05:08:55.795Z,4.20
2017-11-18T05:09:58.418Z,4.20
2017-11-18T05:11:00.978Z,4.20
2017-11-18T05:12:03.494Z,4.30
2017-11-18T05:13:06.033Z,4.30
2017-11-18T05:14:08.560Z,4.30
2017-11-18T05:15:11.230Z,4.40
2017-11-18T05:16:13.759Z,4.40
2017-11-18T05:17:16.281Z,4.40
2017-11-18T05:18:18.799Z,4.40
2017-11-18T05:19:21.324Z,4.40
2017-11-18T05:20:23.887Z,4.40
2017-11-18T05:21:26.456Z,4.40
2017-11-18T05:22:29.018Z,4.50
2017-11-18T05:23:31.526Z,4.50
2017-11-18T05:24:34.048Z,4.50
2017-11-18T05:25:36.657Z,4.50
2017-11-18T05:26:39.258Z,4.50
2017-11-18T05:27:42.543Z,4.50
2017-11-18T05:28:45.075Z,4.50
2017-11-18T05:29:47.598Z,4.50
2017-11-18T05:30:50.114Z,4.50
2017-11-18T05:31:52.686Z,4.50
2017-11-18T05:32:55.983Z,4.50
2017-11-18T05:33:59.850Z,4.50
2017-11-18T05:35:02.375Z,4.50
2017-11-18T05:36:04.937Z,4.60
2017-11-18T05:37:07.461Z,4.50
2017-11-18T05:38:10.127Z,4.50
2017-11-18T05:39:12.648Z,4.50
2017-11-18T05:40:15.214Z,4.50
2017-11-18T05:41:17.734Z,4.50
2017-11-18T05:42:21.020Z,4.50
2017-11-18T05:43:24.302Z,4.50
2017-11-18T05:44:27.598Z,4.50
2017-11-18T05:45:30.909Z,4.50
2017-11-18T05:46:33.427Z,4.50
2017-11-18T05:47:35.957Z,4.50
2017-11-18T05:48:38.507Z,4.50
2017-11-18T05:49:41.033Z,4.50
2017-11-18T05:50:44.625Z,4.50
2017-11-18T05:51:47.166Z,4.50
2017-11-18T05:52:49.689Z,4.50
2017-11-18T05:53:52.243Z,4.50
2017-11-18T05:54:55.532Z,4.50
2017-11-18T05:55:58.063Z,4.50
2017-11-18T05:57:00.593Z,4.50
2017-11-18T05:58:03.124Z,4.60
2017-11-18T05:59:05.677Z,4.50
2017-11-18T06:00:08.963Z,4.60
2017-11-18T06:01:12.252Z,4.50
2017-11-18T06:02:14.805Z,4.50
2017-11-18T06:03:18.102Z,4.60
2017-11-18T06:04:21.423Z,4.60
2017-11-18T06:05:23.938Z,4.60
2017-11-18T06:06:27.218Z,4.60
2017-11-18T06:07:29.743Z,4.60
2017-11-18T06:08:33.107Z,4.60
2017-11-18T06:09:35.666Z,4.50
2017-11-18T06:10:38.188Z,4.50
2017-11-18T06:11:40.742Z,4.60
2017-11-18T06:12:43.272Z,4.60
2017-11-18T06:13:45.791Z,4.60
2017-11-18T06:14:48.307Z,4.60
2017-11-18T06:15:50.860Z,4.60
2017-11-18T06:16:53.414Z,4.60
2017-11-18T06:17:56.694Z,4.60
2017-11-18T06:18:59.982Z,4.60
2017-11-18T06:20:03.269Z,4.60
2017-11-18T06:21:05.838Z,4.60
2017-11-18T06:22:09.150Z,4.60
2017-11-18T06:23:11.671Z,4.60
2017-11-18T06:24:15.003Z,4.70
2017-11-18T06:25:17.529Z,4.70
2017-11-18T06:26:20.814Z,4.70
2017-11-18T06:27:24.102Z,4.70
2017-11-18T06:28:26.633Z,4.70
2017-11-18T06:29:29.177Z,4.70
2017-11-18T06:30:31.699Z,4.70
2017-11-18T06:31:34.984Z,4.70
2017-11-18T06:32:37.513Z,4.70
2017-11-18T06:33:40.031Z,4.70
2017-11-18T06:34:42.587Z,4.70
2017-11-18T06:35:45.136Z,4.70
2017-11-18T06:36:48.421Z,4.70
2017-11-18T06:37:51.706Z,4.70
2017-11-18T06:38:54.985Z,4.70
2017-11-18T06:39:58.305Z,4.80
2017-11-18T06:41:00.826Z,4.70
2017-11-18T06:42:03.348Z,4.70
2017-11-18T06:43:05.874Z,4.70
2017-11-18T06:44:09.167Z,4.80
2017-11-18T06:45:11.710Z,4.80
2017-11-18T06:46:15.069Z,4.90
2017-11-18T06:47:17.584Z,4.80
2017-11-18T06:48:20.100Z,4.80
2017-11-18T06:49:22.648Z,4.80
2017-11-18T06:50:25.171Z,4.80
2017-11-18T06:51:28.456Z,4.80
2017-11-18T06:52:31.739Z,4.90
2017-11-18T06:53:35.063Z,4.90
2017-11-18T06:54:37.588Z,4.90
2017-11-18T06:55:40.912Z,4.90
2017-11-18T06:56:43.429Z,4.90
2017-11-18T06:57:46.709Z,5.00
2017-11-18T06:58:49.278Z,4.90
2017-11-18T06:59:52.562Z,5.00
2017-11-18T07:00:55.850Z,5.00
2017-11-18T07:01:59.131Z,5.00
2017-11-18T07:03:02.410Z,5.00
2017-11-18T07:04:05.732Z,5.00
2017-11-18T07:05:08.286Z,5.00
2017-11-18T07:06:10.840Z,4.90
2017-11-18T07:07:14.118Z,5.00
2017-11-18T07:08:17.408Z,5.00
2017-11-18T07:09:20.703Z,5.00
2017-11-18T07:10:23.220Z,5.00
2017-11-18T07:11:26.155Z,5.00
2017-11-18T07:12:28.677Z,5.00
2017-11-18T07:13:31.191Z,5.10
2017-11-18T07:14:33.732Z,5.10
2017-11-18T07:15:37.018Z,5.10
2017-11-18T07:16:40.344Z,5.10
2017-11-18T07:17:42.868Z,5.10
2017-11-18T07:18:46.153Z,5.10
2017-11-18T07:19:48.676Z,5.10
2017-11-18T07:20:51.197Z,5.10
2017-11-18T07:21:53.749Z,5.10
2017-11-18T07:22:57.038Z,5.10
2017-11-18T07:23:59.551Z,5.00
2017-11-18T07:25:02.087Z,5.00
2017-11-18T07:26:04.611Z,5.00
2017-11-18T07:27:07.166Z,5.00
2017-11-18T07:28:09.692Z,5.10
2017-11-18T07:29:12.208Z,5.10
2017-11-18T07:30:15.490Z,5.10
2017-11-18T07:31:18.782Z,5.20
2017-11-18T07:32:22.101Z,5.20
2017-11-18T07:33:24.612Z,5.20
2017-11-18T07:34:27.138Z,5.20
2017-11-18T07:35:29.655Z,5.20
2017-11-18T07:36:32.181Z,5.20
2017-11-18T07:37:34.723Z,5.20
2017-11-18T07:38:37.238Z,5.20
2017-11-18T07:39:39.789Z,5.30
2017-11-18T07:40:42.368Z,5.20
2017-11-18T07:41:44.892Z,5.20
2017-11-18T07:42:47.449Z,5.20
2017-11-18T07:43:49.981Z,5.30
2017-11-18T07:44:52.506Z,5.20
2017-11-18T07:45:55.032Z,5.20
2017-11-18T07:46:58.316Z,5.30
2017-11-18T07:48:01.626Z,5.30
2017-11-18T07:49:04.151Z,5.30
2017-11-18T07:50:07.517Z,5.30
2017-11-18T07:51:10.022Z,5.30
2017-11-18T07:52:13.304Z,5.30
2017-11-18T07:53:16.718Z,5.30
2017-11-18T07:54:19.247Z,5.30
2017-11-18T07:55:25.985Z,5.30
2017-11-18T07:56:28.499Z,5.30
2017-11-18T07:57:31.024Z,5.30
2017-11-18T07:58:33.599Z,5.30
2017-11-18T07:59:36.119Z,5.30
2017-11-18T08:00:38.631Z,5.30
2017-11-18T08:01:41.148Z,5.40
2017-11-18T08:02:43.671Z,5.40
2017-11-18T08:03:46.994Z,5.40
2017-11-18T08:04:49.515Z,5.40
2017-11-18T08:05:52.807Z,5.40
2017-11-18T08:06:55.363Z,5.40
2017-11-18T08:07:58.685Z,5.40
2017-11-18T08:09:01.202Z,5.40
2017-11-18T08:10:03.732Z,5.40
2017-11-18T08:11:06.279Z,5.40
2017-11-18T08:12:08.839Z,5.50
2017-11-18T08:13:11.359Z,5.50
2017-11-18T08:14:13.913Z,5.40
2017-11-18T08:15:16.432Z,5.50
2017-11-18T08:16:19.040Z,5.40
2017-11-18T08:17:21.550Z,5.40
2017-11-18T08:18:24.834Z,5.40
2017-11-18T08:19:28.183Z,5.40
2017-11-18T08:20:30.696Z,5.40
2017-11-18T08:21:33.223Z,5.40
2017-11-18T08:22:35.748Z,5.40
2017-11-18T08:23:38.294Z,5.50
2017-11-18T08:24:40.818Z,5.50
2017-11-18T08:25:43.396Z,5.40
2017-11-18T08:26:45.915Z,5.50
2017-11-18T08:27:48.431Z,5.40
2017-11-18T08:28:51.211Z,5.40
2017-11-18T08:29:54.494Z,5.40
2017-11-18T08:30:57.064Z,5.40
2017-11-18T08:32:00.343Z,5.50
2017-11-18T08:33:02.858Z,5.50
2017-11-18T08:34:05.375Z,5.40
2017-11-18T08:35:08.702Z,5.40
2017-11-18T08:36:23.057Z,5.40
2017-11-18T08:37:25.580Z,5.40
2017-11-18T08:38:28.918Z,5.50
2017-11-18T08:39:31.446Z,5.40
2017-11-18T08:40:33.967Z,5.50
2017-11-18T08:41:36.478Z,5.40
2017-11-18T08:42:38.995Z,5.40
2017-11-18T08:43:41.542Z,5.50
2017-11-18T08:44:44.056Z,5.40
2017-11-18T08:45:47.386Z,5.50
2017-11-18T08:46:49.899Z,5.40
2017-11-18T08:47:53.181Z,5.50
2017-11-18T08:48:56.464Z,5.50
2017-11-18T08:49:59.759Z,5.50
2017-11-18T08:51:03.072Z,5.50
2017-11-18T08:52:05.594Z,5.50
2017-11-18T08:53:08.107Z,5.50
2017-11-18T08:54:10.675Z,5.50
2017-11-18T08:55:13.202Z,5.50
2017-11-18T08:56:16.523Z,5.50
2017-11-18T08:57:19.039Z,5.50
2017-11-18T08:58:21.632Z,5.50
2017-11-18T08:59:24.145Z,5.50
2017-11-18T09:00:26.658Z,5.50
2017-11-18T09:01:29.972Z,5.50
2017-11-18T09:02:32.490Z,5.50
2017-11-18T09:03:35.040Z,5.50
2017-11-18T09:04:37.595Z,5.50
2017-11-18T09:05:40.125Z,5.50
2017-11-18T09:06:42.674Z,5.50
2017-11-18T09:07:45.967Z,5.60
2017-11-18T09:08:48.485Z,5.60
2017-11-18T09:09:51.004Z,5.60
2017-11-18T09:10:53.537Z,5.60
2017-11-18T09:11:57.650Z,5.60
2017-11-18T09:13:00.926Z,5.60
2017-11-18T09:14:04.213Z,5.60
2017-11-18T09:15:07.496Z,5.60
2017-11-18T09:16:10.777Z,5.60
2017-11-18T09:17:13.342Z,5.60
2017-11-18T09:18:15.948Z,5.70
2017-11-18T09:19:18.463Z,5.60
2017-11-18T09:20:20.977Z,5.70
2017-11-18T09:21:23.487Z,5.70
2017-11-18T09:22:29.890Z,5.70
2017-11-18T09:23:32.402Z,5.70
2017-11-18T09:24:34.920Z,5.70
2017-11-18T09:25:37.443Z,5.70
2017-11-18T09:26:40.002Z,5.70
2017-11-18T09:27:42.544Z,5.70
2017-11-18T09:28:45.069Z,5.70
2017-11-18T09:29:48.355Z,5.70
2017-11-18T09:30:51.644Z,5.70
2017-11-18T09:31:54.208Z,5.70
2017-11-18T09:32:57.504Z,5.70
2017-11-18T09:34:00.037Z,5.70
2017-11-18T09:35:02.560Z,5.70
2017-11-18T09:36:05.089Z,5.70
2017-11-18T09:37:08.412Z,5.70
2017-11-18T09:38:10.930Z,5.60
2017-11-18T09:39:14.214Z,5.70
2017-11-18T09:40:17.522Z,5.70
2017-11-18T09:41:20.075Z,5.70
2017-11-18T09:42:23.355Z,5.70
2017-11-18T09:43:26.676Z,5.70
2017-11-18T09:44:29.193Z,5.60
2017-11-18T09:45:32.475Z,5.60
2017-11-18T09:46:34.996Z,5.60
2017-11-18T09:47:37.551Z,5.60
2017-11-18T09:48:40.078Z,5.60
2017-11-18T09:49:43.359Z,5.70
2017-11-18T09:50:45.874Z,5.60
2017-11-18T09:51:48.389Z,5.60
2017-11-18T09:52:51.727Z,5.60
2017-11-18T09:53:54.275Z,5.60
2017-11-18T09:54:56.792Z,5.60
2017-11-18T09:55:59.303Z,5.60
2017-11-18T09:57:01.818Z,5.70
2017-11-18T09:58:04.359Z,5.60
2017-11-18T09:59:06.908Z,5.60
2017-11-18T10:00:09.431Z,5.60
2017-11-18T10:01:11.958Z,5.60
2017-11-18T10:02:14.539Z,5.70
2017-11-18T10:03:17.099Z,5.70
2017-11-18T10:04:19.618Z,5.70
2017-11-18T10:05:22.898Z,5.70
2017-11-18T10:06:25.424Z,5.70
2017-11-18T10:07:27.942Z,5.70
2017-11-18T10:08:30.505Z,5.70
2017-11-18T10:09:33.014Z,5.70
2017-11-18T10:10:35.526Z,5.70
2017-11-18T10:11:38.819Z,5.70
2017-11-18T10:12:41.362Z,5.70
2017-11-18T10:13:44.690Z,5.70
2017-11-18T10:14:47.223Z,5.60
2017-11-18T10:15:50.515Z,5.60
2017-11-18T10:16:53.034Z,5.70
2017-11-18T10:17:55.556Z,5.70
2017-11-18T10:18:58.116Z,5.70
2017-11-18T10:20:00.634Z,5.70
2017-11-18T10:21:03.154Z,5.70
2017-11-18T10:22:05.674Z,5.70
2017-11-18T10:23:08.243Z,5.70
2017-11-18T10:24:10.768Z,5.70
2017-11-18T10:25:13.283Z,5.70
2017-11-18T10:26:15.860Z,5.70
2017-11-18T10:27:19.142Z,5.80
2017-11-18T10:28:22.464Z,5.80
2017-11-18T10:29:24.986Z,5.80
2017-11-18T10:30:27.508Z,5.70
2017-11-18T10:31:30.026Z,5.70
2017-11-18T10:32:33.310Z,5.70
2017-11-18T10:33:36.634Z,5.70
2017-11-18T10:34:39.147Z,5.70
2017-11-18T10:35:41.664Z,5.70
2017-11-18T10:36:44.220Z,5.70
2017-11-18T10:37:46.735Z,5.70
2017-11-18T10:38:49.255Z,5.70
2017-11-18T10:39:51.815Z,5.70
2017-11-18T10:40:54.343Z,5.70
2017-11-18T10:41:56.863Z,5.70
2017-11-18T10:42:59.392Z,5.70
2017-11-18T10:44:02.680Z,5.70
2017-11-18T10:45:06.016Z,5.60
2017-11-18T10:46:08.536Z,5.60
2017-11-18T10:47:11.059Z,5.60
2017-11-18T10:48:13.570Z,5.60
2017-11-18T10:49:16.095Z,5.60
2017-11-18T10:50:18.646Z,5.60
2017-11-18T10:51:21.195Z,5.60
2017-11-18T10:52:23.711Z,5.60
2017-11-18T10:53:27.020Z,5.60
2017-11-18T10:54:29.539Z,5.60
2017-11-18T10:55:32.097Z,5.60
2017-11-18T10:56:34.631Z,5.60
2017-11-18T10:57:37.147Z,5.60
2017-11-18T10:58:39.672Z,5.60
2017-11-18T10:59:42.233Z,5.60
2017-11-18T11:00:44.747Z,5.60
2017-11-18T11:01:47.259Z,5.60
2017-11-18T11:02:49.811Z,5.60
2017-11-18T11:03:52.325Z,5.60
2017-11-18T11:04:54.844Z,5.70
2017-11-18T11:05:57.367Z,5.70
2017-11-18T11:06:59.924Z,5.60
2017-11-18T11:08:02.447Z,5.70
2017-11-18T11:09:04.973Z,5.70
2017-11-18T11:10:07.529Z,5.70
2017-11-18T11:11:10.065Z,5.70
2017-11-18T11:12:12.583Z,5.70
2017-11-18T11:13:15.876Z,5.70
2017-11-18T11:14:19.164Z,5.70
2017-11-18T11:15:22.496Z,5.70
2017-11-18T11:16:25.029Z,5.70
2017-11-18T11:17:27.551Z,5.70
2017-11-18T11:18:30.122Z,5.70
2017-11-18T11:19:32.638Z,5.70
2017-11-18T11:20:35.217Z,5.70
2017-11-18T11:21:37.765Z,5.70
2017-11-18T11:22:40.286Z,5.80
2017-11-18T11:23:42.799Z,5.70
2017-11-18T11:24:45.325Z,5.70
2017-11-18T11:25:48.656Z,5.70
2017-11-18T11:26:51.176Z,5.70
2017-11-18T11:27:54.468Z,5.60
2017-11-18T11:28:57.750Z,5.60
2017-11-18T11:30:01.071Z,5.60
2017-11-18T11:31:03.596Z,5.60
2017-11-18T11:32:06.889Z,5.60
2017-11-18T11:33:09.451Z,5.60
2017-11-18T11:34:12.740Z,5.70
2017-11-18T11:35:16.053Z,5.60
2017-11-18T11:36:18.574Z,5.70
2017-11-18T11:37:21.104Z,5.70
2017-11-18T11:38:23.629Z,5.70
2017-11-18T11:39:26.153Z,5.70
2017-11-18T11:40:28.730Z,5.70
2017-11-18T11:41:31.247Z,5.70
2017-11-18T11:42:33.758Z,5.70
2017-11-18T11:43:36.279Z,5.70
2017-11-18T11:44:38.796Z,5.70
2017-11-18T11:45:41.354Z,5.70
2017-11-18T11:46:43.879Z,5.60
2017-11-18T11:47:46.399Z,5.70
2017-11-18T11:48:48.924Z,5.70
2017-11-18T11:49:51.455Z,5.70
2017-11-18T11:50:54.016Z,5.70
2017-11-18T11:51:57.298Z,5.70
2017-11-18T11:53:00.627Z,5.70
2017-11-18T11:54:03.153Z,5.70
2017-11-18T11:55:06.169Z,5.70
2017-11-18T11:56:08.703Z,5.70
2017-11-18T11:57:11.229Z,5.70
2017-11-18T11:58:14.351Z,5.70
2017-11-18T11:59:16.879Z,5.70
2017-11-18T12:00:19.966Z,5.70
2017-11-18T12:01:22.485Z,5.70
2017-11-18T12:02:24.998Z,5.80
2017-11-18T12:03:27.558Z,5.80
2017-11-18T12:04:30.082Z,5.80
2017-11-18T12:05:32.610Z,5.80
2017-11-18T12:06:35.897Z,5.80
2017-11-18T12:07:39.173Z,5.80
2017-11-18T12:08:42.487Z,5.70
2017-11-18T12:09:45.012Z,5.70
2017-11-18T12:10:47.539Z,5.80
2017-11-18T12:11:50.086Z,5.80
2017-11-18T12:12:52.662Z,5.80
2017-11-18T12:13:55.187Z,5.80
2017-11-18T12:14:58.466Z,5.80
2017-11-18T12:16:01.747Z,5.80
2017-11-18T12:17:05.021Z,5.80
2017-11-18T12:18:07.587Z,5.80
2017-11-18T12:19:10.880Z,5.80
2017-11-18T12:20:14.157Z,5.80
2017-11-18T12:21:16.678Z,5.80
2017-11-18T12:22:19.196Z,5.80
2017-11-18T12:23:22.514Z,5.90
2017-11-18T12:24:25.074Z,5.90
2017-11-18T12:25:27.596Z,5.90
2017-11-18T12:26:30.127Z,5.90
2017-11-18T12:27:32.652Z,5.90
2017-11-18T12:28:35.962Z,5.90
2017-11-18T12:29:38.511Z,6.00
2017-11-18T12:30:41.790Z,5.90
2017-11-18T12:31:45.075Z,5.90
2017-11-18T12:32:48.357Z,5.90
2017-11-18T12:33:50.924Z,5.90
2017-11-18T12:34:53.491Z,5.90
2017-11-18T12:35:56.779Z,6.00
2017-11-18T12:36:59.289Z,6.00
2017-11-18T12:38:01.806Z,6.00
2017-11-18T12:39:05.088Z,6.00
2017-11-18T12:40:07.641Z,6.00
2017-11-18T12:41:10.925Z,6.00
2017-11-18T12:42:14.263Z,6.10
2017-11-18T12:43:16.787Z,6.10
2017-11-18T12:44:20.076Z,6.20
2017-11-18T12:45:23.379Z,6.30
2017-11-18T12:46:26.061Z,6.20
2017-11-18T12:47:29.180Z,6.30
2017-11-18T12:48:31.731Z,6.40
2017-11-18T12:49:34.255Z,6.40
2017-11-18T12:50:36.770Z,6.40
2017-11-18T12:51:39.291Z,6.50
2017-11-18T12:52:41.803Z,6.50
2017-11-18T12:53:44.382Z,6.50
2017-11-18T12:54:46.936Z,6.50
2017-11-18T12:55:49.459Z,6.50
2017-11-18T12:56:51.966Z,6.50
2017-11-18T12:57:55.158Z,6.50
2017-11-18T12:58:57.811Z,6.50
2017-11-18T13:00:00.343Z,6.50
2017-11-18T13:01:02.894Z,6.60
2017-11-18T13:02:05.415Z,6.60
2017-11-18T13:03:07.932Z,6.60
2017-11-18T13:04:10.488Z,6.70
2017-11-18T13:05:13.011Z,6.60
2017-11-18T13:06:15.562Z,6.60
2017-11-18T13:07:18.075Z,6.60
2017-11-18T13:08:21.483Z,6.70
2017-11-18T13:09:24.011Z,6.70
2017-11-18T13:10:26.577Z,6.80
2017-11-18T13:11:29.096Z,6.80
2017-11-18T13:12:31.631Z,7.00
2017-11-18T13:13:34.206Z,7.20
2017-11-18T13:14:36.728Z,7.40
2017-11-18T13:15:39.242Z,7.50
2017-11-18T13:16:41.759Z,7.60
2017-11-18T13:17:44.274Z,7.90
2017-11-18T13:18:46.829Z,8.10
2017-11-18T13:19:49.364Z,8.20
2017-11-18T13:20:51.885Z,8.30
2017-11-18T13:21:54.436Z,8.30
2017-11-18T13:22:56.954Z,8.30
2017-11-18T13:23:59.481Z,8.10
2017-11-18T13:25:02.022Z,7.80
2017-11-18T13:26:05.303Z,7.30
2017-11-18T13:27:08.596Z,7.00
2017-11-18T13:28:11.117Z,7.00
2017-11-18T13:29:13.640Z,6.90
2017-11-18T13:30:16.194Z,6.80
2017-11-18T13:31:18.711Z,6.70
2017-11-18T13:32:21.359Z,6.60
2017-11-18T13:33:23.880Z,6.50
2017-11-18T13:34:27.236Z,6.40
2017-11-18T13:35:29.756Z,6.40
2017-11-18T13:36:32.283Z,6.30
2017-11-18T13:37:34.800Z,6.30
2017-11-18T13:38:37.311Z,6.20
2017-11-18T13:39:40.631Z,6.20
2017-11-18T13:40:43.142Z,6.20
2017-11-18T13:41:45.671Z,6.20
2017-11-18T13:42:48.181Z,6.10
2017-11-18T13:43:50.725Z,6.10
2017-11-18T13:44:53.246Z,6.10
2017-11-18T13:45:55.759Z,6.10
2017-11-18T13:46:58.286Z,6.10
2017-11-18T13:48:00.855Z,6.10
2017-11-18T13:49:03.373Z,6.10
2017-11-18T13:50:05.996Z,6.10
2017-11-18T13:51:08.515Z,6.10
2017-11-18T13:52:11.036Z,6.00
2017-11-18T13:53:13.580Z,6.00
2017-11-18T13:54:16.094Z,6.00
2017-11-18T13:55:18.681Z,6.00
2017-11-18T13:56:21.202Z,6.10
2017-11-18T13:57:23.718Z,6.00
2017-11-18T13:58:27.007Z,6.00